sensor_id;sensor_type;location;lat;lon;timestamp;P1;durP1;ratioP1;P2;durP2;ratioP2
23743;SDS011;12052;53.478;10.182;2024-03-02T00:02:24;29.55;;;11.98;;
23743;SDS011;12052;53.478;10.182;2024-03-02T00:04:50;25.50;;;11.95;;
23743;SDS011;12052;53.478;10.182;2024-03-02T00:07:16;31.63;;;12.98;;
23743;SDS011;12052;53.478;10.182;2024-03-02T00:09:42;31.45;;;13.15;;
23743;SDS011;12052;53.478;10.182;2024-03-02T00:12:08;29.70;;;12.23;;
23743;SDS011;12052;53.478;10.182;2024-03-02T00:14:36;35.65;;;13.80;;
23743;SDS011;12052;53.478;10.182;2024-03-02T00:17:02;32.33;;;13.40;;
23743;SDS011;12052;53.478;10.182;2024-03-02T00:19:28;33.33;;;13.15;;
23743;SDS011;12052;53.478;10.182;2024-03-02T00:21:54;36.90;;;14.65;;
23743;SDS011;12052;53.478;10.182;2024-03-02T00:26:46;34.90;;;14.23;;
23743;SDS011;12052;53.478;10.182;2024-03-02T00:29:14;31.67;;;14.95;;
23743;SDS011;12052;53.478;10.182;2024-03-02T00:31:41;30.77;;;13.68;;
23743;SDS011;12052;53.478;10.182;2024-03-02T00:34:06;31.17;;;13.30;;
23743;SDS011;12052;53.478;10.182;2024-03-02T00:36:32;32.38;;;15.55;;
23743;SDS011;12052;53.478;10.182;2024-03-02T00:38:58;34.53;;;15.57;;
23743;SDS011;12052;53.478;10.182;2024-03-02T00:41:27;43.58;;;15.38;;
23743;SDS011;12052;53.478;10.182;2024-03-02T00:43:56;34.47;;;14.60;;
23743;SDS011;12052;53.478;10.182;2024-03-02T00:46:27;40.78;;;15.48;;
23743;SDS011;12052;53.478;10.182;2024-03-02T00:48:58;34.90;;;13.75;;
23743;SDS011;12052;53.478;10.182;2024-03-02T00:51:25;32.58;;;15.25;;
23743;SDS011;12052;53.478;10.182;2024-03-02T00:53:53;34.67;;;14.38;;
23743;SDS011;12052;53.478;10.182;2024-03-02T00:56:26;35.58;;;14.55;;
23743;SDS011;12052;53.478;10.182;2024-03-02T00:58:52;35.45;;;15.23;;
23743;SDS011;12052;53.478;10.182;2024-03-02T01:01:18;40.08;;;15.35;;
23743;SDS011;12052;53.478;10.182;2024-03-02T01:03:45;37.65;;;14.65;;
23743;SDS011;12052;53.478;10.182;2024-03-02T01:06:10;36.05;;;14.07;;
23743;SDS011;12052;53.478;10.182;2024-03-02T01:08:36;34.50;;;14.77;;
23743;SDS011;12052;53.478;10.182;2024-03-02T01:11:02;43.75;;;16.63;;
23743;SDS011;12052;53.478;10.182;2024-03-02T01:13:29;38.50;;;15.30;;
23743;SDS011;12052;53.478;10.182;2024-03-02T01:15:55;37.90;;;14.20;;
23743;SDS011;12052;53.478;10.182;2024-03-02T01:18:21;41.65;;;15.63;;
23743;SDS011;12052;53.478;10.182;2024-03-02T01:20:47;35.45;;;14.18;;
23743;SDS011;12052;53.478;10.182;2024-03-02T01:23:13;46.63;;;16.38;;
23743;SDS011;12052;53.478;10.182;2024-03-02T01:25:40;41.33;;;15.38;;
23743;SDS011;12052;53.478;10.182;2024-03-02T01:28:05;43.25;;;15.93;;
23743;SDS011;12052;53.478;10.182;2024-03-02T01:30:34;39.03;;;16.10;;
23743;SDS011;12052;53.478;10.182;2024-03-02T01:33:00;44.88;;;16.73;;
23743;SDS011;12052;53.478;10.182;2024-03-02T01:35:27;42.55;;;15.75;;
23743;SDS011;12052;53.478;10.182;2024-03-02T01:37:52;41.47;;;16.35;;
23743;SDS011;12052;53.478;10.182;2024-03-02T01:40:18;37.22;;;15.23;;
23743;SDS011;12052;53.478;10.182;2024-03-02T01:42:44;35.85;;;14.00;;
23743;SDS011;12052;53.478;10.182;2024-03-02T01:45:10;40.72;;;15.52;;
23743;SDS011;12052;53.478;10.182;2024-03-02T01:47:35;40.67;;;14.95;;
23743;SDS011;12052;53.478;10.182;2024-03-02T01:50:01;40.63;;;15.43;;
23743;SDS011;12052;53.478;10.182;2024-03-02T01:52:27;34.25;;;13.75;;
23743;SDS011;12052;53.478;10.182;2024-03-02T01:54:53;34.78;;;14.90;;
23743;SDS011;12052;53.478;10.182;2024-03-02T01:57:18;38.05;;;14.55;;
23743;SDS011;12052;53.478;10.182;2024-03-02T01:59:44;37.78;;;14.82;;
23743;SDS011;12052;53.478;10.182;2024-03-02T02:02:13;41.10;;;16.60;;
23743;SDS011;12052;53.478;10.182;2024-03-02T02:04:39;38.78;;;15.43;;
23743;SDS011;12052;53.478;10.182;2024-03-02T02:07:05;46.65;;;16.83;;
23743;SDS011;12052;53.478;10.182;2024-03-02T02:09:31;35.47;;;15.23;;
23743;SDS011;12052;53.478;10.182;2024-03-02T02:11:57;37.15;;;14.93;;
23743;SDS011;12052;53.478;10.182;2024-03-02T02:14:23;34.88;;;15.68;;
23743;SDS011;12052;53.478;10.182;2024-03-02T02:16:49;34.53;;;14.05;;
23743;SDS011;12052;53.478;10.182;2024-03-02T02:19:14;39.13;;;15.32;;
23743;SDS011;12052;53.478;10.182;2024-03-02T02:21:43;37.03;;;15.20;;
23743;SDS011;12052;53.478;10.182;2024-03-02T02:24:09;38.25;;;16.02;;
23743;SDS011;12052;53.478;10.182;2024-03-02T02:26:35;39.15;;;16.52;;
23743;SDS011;12052;53.478;10.182;2024-03-02T02:29:00;38.17;;;15.75;;
23743;SDS011;12052;53.478;10.182;2024-03-02T02:31:26;34.63;;;15.07;;
23743;SDS011;12052;53.478;10.182;2024-03-02T02:33:52;39.45;;;15.23;;
23743;SDS011;12052;53.478;10.182;2024-03-02T02:36:17;37.92;;;15.27;;
23743;SDS011;12052;53.478;10.182;2024-03-02T02:38:44;37.80;;;15.73;;
23743;SDS011;12052;53.478;10.182;2024-03-02T02:41:12;39.38;;;15.73;;
23743;SDS011;12052;53.478;10.182;2024-03-02T02:43:38;41.00;;;16.23;;
23743;SDS011;12052;53.478;10.182;2024-03-02T02:46:05;39.40;;;14.60;;
23743;SDS011;12052;53.478;10.182;2024-03-02T02:48:30;42.47;;;17.38;;
23743;SDS011;12052;53.478;10.182;2024-03-02T02:50:56;35.97;;;14.20;;
23743;SDS011;12052;53.478;10.182;2024-03-02T02:53:21;38.25;;;16.40;;
23743;SDS011;12052;53.478;10.182;2024-03-02T02:55:47;36.30;;;16.35;;
23743;SDS011;12052;53.478;10.182;2024-03-02T02:58:13;37.70;;;15.00;;
23743;SDS011;12052;53.478;10.182;2024-03-02T03:00:39;40.78;;;15.85;;
23743;SDS011;12052;53.478;10.182;2024-03-02T03:03:05;41.08;;;15.40;;
23743;SDS011;12052;53.478;10.182;2024-03-02T03:05:31;37.15;;;13.85;;
23743;SDS011;12052;53.478;10.182;2024-03-02T03:07:56;37.85;;;13.80;;
23743;SDS011;12052;53.478;10.182;2024-03-02T03:10:22;33.97;;;14.50;;
23743;SDS011;12052;53.478;10.182;2024-03-02T03:12:50;40.97;;;16.35;;
23743;SDS011;12052;53.478;10.182;2024-03-02T03:15:16;39.33;;;16.13;;
23743;SDS011;12052;53.478;10.182;2024-03-02T03:17:42;39.03;;;16.42;;
23743;SDS011;12052;53.478;10.182;2024-03-02T03:20:08;34.20;;;13.32;;
23743;SDS011;12052;53.478;10.182;2024-03-02T03:22:37;37.97;;;15.50;;
23743;SDS011;12052;53.478;10.182;2024-03-02T03:25:04;40.70;;;16.52;;
23743;SDS011;12052;53.478;10.182;2024-03-02T03:27:30;36.00;;;15.70;;
23743;SDS011;12052;53.478;10.182;2024-03-02T03:29:56;45.05;;;16.48;;
23743;SDS011;12052;53.478;10.182;2024-03-02T03:32:21;41.25;;;17.45;;
23743;SDS011;12052;53.478;10.182;2024-03-02T03:34:47;36.40;;;15.88;;
23743;SDS011;12052;53.478;10.182;2024-03-02T03:37:13;39.13;;;15.57;;
23743;SDS011;12052;53.478;10.182;2024-03-02T03:39:40;32.05;;;15.07;;
23743;SDS011;12052;53.478;10.182;2024-03-02T03:42:06;35.25;;;15.70;;
23743;SDS011;12052;53.478;10.182;2024-03-02T03:44:31;40.70;;;16.88;;
23743;SDS011;12052;53.478;10.182;2024-03-02T03:46:57;39.17;;;17.10;;
23743;SDS011;12052;53.478;10.182;2024-03-02T03:49:23;46.75;;;16.70;;
23743;SDS011;12052;53.478;10.182;2024-03-02T03:51:48;39.90;;;15.23;;
23743;SDS011;12052;53.478;10.182;2024-03-02T03:54:14;37.95;;;15.70;;
23743;SDS011;12052;53.478;10.182;2024-03-02T03:56:40;40.75;;;16.70;;
23743;SDS011;12052;53.478;10.182;2024-03-02T03:59:05;30.70;;;14.10;;
23743;SDS011;12052;53.478;10.182;2024-03-02T04:01:31;38.03;;;14.90;;
23743;SDS011;12052;53.478;10.182;2024-03-02T04:03:57;35.97;;;14.93;;
23743;SDS011;12052;53.478;10.182;2024-03-02T04:06:23;39.00;;;15.93;;
23743;SDS011;12052;53.478;10.182;2024-03-02T04:08:48;41.72;;;15.23;;
23743;SDS011;12052;53.478;10.182;2024-03-02T04:11:14;38.00;;;15.15;;
23743;SDS011;12052;53.478;10.182;2024-03-02T04:13:40;39.67;;;15.85;;
23743;SDS011;12052;53.478;10.182;2024-03-02T04:16:05;34.67;;;15.52;;
23743;SDS011;12052;53.478;10.182;2024-03-02T04:18:31;35.92;;;16.50;;
23743;SDS011;12052;53.478;10.182;2024-03-02T04:21:00;33.67;;;15.18;;
23743;SDS011;12052;53.478;10.182;2024-03-02T04:23:28;35.97;;;15.50;;
23743;SDS011;12052;53.478;10.182;2024-03-02T04:25:54;35.55;;;15.35;;
23743;SDS011;12052;53.478;10.182;2024-03-02T04:28:19;35.80;;;15.05;;
23743;SDS011;12052;53.478;10.182;2024-03-02T04:30:45;43.88;;;14.90;;
23743;SDS011;12052;53.478;10.182;2024-03-02T04:33:11;41.65;;;15.32;;
23743;SDS011;12052;53.478;10.182;2024-03-02T04:35:36;39.88;;;15.95;;
23743;SDS011;12052;53.478;10.182;2024-03-02T04:38:02;34.42;;;14.90;;
23743;SDS011;12052;53.478;10.182;2024-03-02T04:40:28;36.97;;;14.95;;
23743;SDS011;12052;53.478;10.182;2024-03-02T04:42:53;39.40;;;13.95;;
23743;SDS011;12052;53.478;10.182;2024-03-02T04:45:19;36.13;;;14.77;;
23743;SDS011;12052;53.478;10.182;2024-03-02T04:47:44;36.92;;;14.23;;
23743;SDS011;12052;53.478;10.182;2024-03-02T04:50:10;31.50;;;13.50;;
23743;SDS011;12052;53.478;10.182;2024-03-02T04:52:36;32.60;;;14.48;;
23743;SDS011;12052;53.478;10.182;2024-03-02T04:55:02;35.97;;;15.98;;
23743;SDS011;12052;53.478;10.182;2024-03-02T04:57:46;38.53;;;15.63;;
23743;SDS011;12052;53.478;10.182;2024-03-02T05:00:12;33.33;;;13.57;;
23743;SDS011;12052;53.478;10.182;2024-03-02T05:02:38;35.25;;;13.93;;
23743;SDS011;12052;53.478;10.182;2024-03-02T05:05:04;37.78;;;14.73;;
23743;SDS011;12052;53.478;10.182;2024-03-02T05:07:29;35.03;;;13.73;;
23743;SDS011;12052;53.478;10.182;2024-03-02T05:09:55;34.28;;;14.18;;
23743;SDS011;12052;53.478;10.182;2024-03-02T05:12:21;44.15;;;16.55;;
23743;SDS011;12052;53.478;10.182;2024-03-02T05:15:18;33.00;;;15.07;;
23743;SDS011;12052;53.478;10.182;2024-03-02T05:17:44;38.60;;;15.02;;
23743;SDS011;12052;53.478;10.182;2024-03-02T05:20:10;38.97;;;15.57;;
23743;SDS011;12052;53.478;10.182;2024-03-02T05:22:36;33.85;;;15.13;;
23743;SDS011;12052;53.478;10.182;2024-03-02T05:25:02;34.33;;;14.75;;
23743;SDS011;12052;53.478;10.182;2024-03-02T05:27:29;33.63;;;14.90;;
23743;SDS011;12052;53.478;10.182;2024-03-02T05:29:55;40.15;;;14.77;;
23743;SDS011;12052;53.478;10.182;2024-03-02T05:32:20;35.58;;;13.95;;
23743;SDS011;12052;53.478;10.182;2024-03-02T05:34:46;37.78;;;14.25;;
23743;SDS011;12052;53.478;10.182;2024-03-02T05:37:12;37.88;;;14.13;;
23743;SDS011;12052;53.478;10.182;2024-03-02T05:39:37;41.53;;;14.20;;
23743;SDS011;12052;53.478;10.182;2024-03-02T05:42:03;35.75;;;14.75;;
23743;SDS011;12052;53.478;10.182;2024-03-02T05:44:29;30.20;;;13.50;;
23743;SDS011;12052;53.478;10.182;2024-03-02T05:46:55;30.83;;;15.02;;
23743;SDS011;12052;53.478;10.182;2024-03-02T05:49:20;32.85;;;14.02;;
23743;SDS011;12052;53.478;10.182;2024-03-02T05:51:46;34.20;;;12.98;;
23743;SDS011;12052;53.478;10.182;2024-03-02T05:54:12;37.53;;;15.55;;
23743;SDS011;12052;53.478;10.182;2024-03-02T05:56:38;38.20;;;15.70;;
23743;SDS011;12052;53.478;10.182;2024-03-02T05:59:03;31.58;;;15.60;;
23743;SDS011;12052;53.478;10.182;2024-03-02T06:01:47;37.78;;;15.73;;
23743;SDS011;12052;53.478;10.182;2024-03-02T06:04:15;33.78;;;15.15;;
23743;SDS011;12052;53.478;10.182;2024-03-02T06:06:41;44.97;;;15.75;;
23743;SDS011;12052;53.478;10.182;2024-03-02T06:09:07;32.50;;;14.40;;
23743;SDS011;12052;53.478;10.182;2024-03-02T06:11:34;33.85;;;14.15;;
23743;SDS011;12052;53.478;10.182;2024-03-02T06:14:00;35.60;;;14.68;;
23743;SDS011;12052;53.478;10.182;2024-03-02T06:16:26;31.98;;;15.30;;
23743;SDS011;12052;53.478;10.182;2024-03-02T06:18:51;32.42;;;14.20;;
23743;SDS011;12052;53.478;10.182;2024-03-02T06:21:18;31.52;;;13.32;;
23743;SDS011;12052;53.478;10.182;2024-03-02T06:23:45;36.22;;;14.15;;
23743;SDS011;12052;53.478;10.182;2024-03-02T06:26:10;38.05;;;14.50;;
23743;SDS011;12052;53.478;10.182;2024-03-02T06:28:37;34.22;;;14.75;;
23743;SDS011;12052;53.478;10.182;2024-03-02T06:31:03;41.42;;;15.02;;
23743;SDS011;12052;53.478;10.182;2024-03-02T06:33:29;37.13;;;14.70;;
23743;SDS011;12052;53.478;10.182;2024-03-02T06:35:54;32.28;;;14.82;;
23743;SDS011;12052;53.478;10.182;2024-03-02T06:38:20;36.25;;;15.80;;
23743;SDS011;12052;53.478;10.182;2024-03-02T06:40:45;31.73;;;15.00;;
23743;SDS011;12052;53.478;10.182;2024-03-02T06:43:11;37.45;;;14.60;;
23743;SDS011;12052;53.478;10.182;2024-03-02T06:45:36;42.13;;;15.82;;
23743;SDS011;12052;53.478;10.182;2024-03-02T06:48:03;42.40;;;15.77;;
23743;SDS011;12052;53.478;10.182;2024-03-02T06:50:28;35.67;;;14.50;;
23743;SDS011;12052;53.478;10.182;2024-03-02T06:52:54;37.33;;;14.80;;
23743;SDS011;12052;53.478;10.182;2024-03-02T06:55:21;32.30;;;14.90;;
23743;SDS011;12052;53.478;10.182;2024-03-02T06:57:47;37.58;;;15.57;;
23743;SDS011;12052;53.478;10.182;2024-03-02T07:00:12;34.22;;;15.77;;
23743;SDS011;12052;53.478;10.182;2024-03-02T07:02:38;36.33;;;15.43;;
23743;SDS011;12052;53.478;10.182;2024-03-02T07:05:06;41.92;;;15.90;;
23743;SDS011;12052;53.478;10.182;2024-03-02T07:07:33;39.28;;;15.82;;
23743;SDS011;12052;53.478;10.182;2024-03-02T07:10:00;39.95;;;16.02;;
23743;SDS011;12052;53.478;10.182;2024-03-02T07:12:25;35.20;;;15.32;;
23743;SDS011;12052;53.478;10.182;2024-03-02T07:14:51;41.35;;;16.42;;
23743;SDS011;12052;53.478;10.182;2024-03-02T07:17:32;43.08;;;16.80;;
23743;SDS011;12052;53.478;10.182;2024-03-02T07:19:58;40.85;;;15.27;;
23743;SDS011;12052;53.478;10.182;2024-03-02T07:22:23;37.08;;;16.23;;
23743;SDS011;12052;53.478;10.182;2024-03-02T07:24:49;38.67;;;15.93;;
23743;SDS011;12052;53.478;10.182;2024-03-02T07:27:15;37.10;;;15.77;;
23743;SDS011;12052;53.478;10.182;2024-03-02T07:29:42;42.95;;;17.33;;
23743;SDS011;12052;53.478;10.182;2024-03-02T07:32:09;37.30;;;14.73;;
23743;SDS011;12052;53.478;10.182;2024-03-02T07:34:35;40.85;;;16.27;;
23743;SDS011;12052;53.478;10.182;2024-03-02T07:37:01;42.40;;;16.17;;
23743;SDS011;12052;53.478;10.182;2024-03-02T07:39:27;37.38;;;15.70;;
23743;SDS011;12052;53.478;10.182;2024-03-02T07:41:54;46.70;;;16.75;;
23743;SDS011;12052;53.478;10.182;2024-03-02T07:44:20;36.75;;;17.38;;
23743;SDS011;12052;53.478;10.182;2024-03-02T07:46:46;41.28;;;16.63;;
23743;SDS011;12052;53.478;10.182;2024-03-02T07:49:12;39.60;;;16.50;;
23743;SDS011;12052;53.478;10.182;2024-03-02T07:51:39;38.17;;;15.77;;
23743;SDS011;12052;53.478;10.182;2024-03-02T07:54:04;38.00;;;15.80;;
23743;SDS011;12052;53.478;10.182;2024-03-02T07:56:30;28.98;;;15.02;;
23743;SDS011;12052;53.478;10.182;2024-03-02T07:58:56;38.47;;;16.80;;
23743;SDS011;12052;53.478;10.182;2024-03-02T08:01:26;34.42;;;15.45;;
23743;SDS011;12052;53.478;10.182;2024-03-02T08:03:52;39.38;;;16.52;;
23743;SDS011;12052;53.478;10.182;2024-03-02T08:06:18;38.60;;;16.15;;
23743;SDS011;12052;53.478;10.182;2024-03-02T08:08:46;36.38;;;14.98;;
23743;SDS011;12052;53.478;10.182;2024-03-02T08:11:12;39.67;;;15.68;;
23743;SDS011;12052;53.478;10.182;2024-03-02T08:13:37;43.58;;;17.05;;
23743;SDS011;12052;53.478;10.182;2024-03-02T08:16:03;43.13;;;17.75;;
23743;SDS011;12052;53.478;10.182;2024-03-02T08:18:32;34.75;;;15.77;;
23743;SDS011;12052;53.478;10.182;2024-03-02T08:20:57;37.83;;;15.20;;
23743;SDS011;12052;53.478;10.182;2024-03-02T08:23:23;33.65;;;16.05;;
23743;SDS011;12052;53.478;10.182;2024-03-02T08:25:49;34.55;;;16.05;;
23743;SDS011;12052;53.478;10.182;2024-03-02T08:28:14;38.45;;;16.13;;
23743;SDS011;12052;53.478;10.182;2024-03-02T08:30:40;33.58;;;14.93;;
23743;SDS011;12052;53.478;10.182;2024-03-02T08:33:05;37.88;;;17.17;;
23743;SDS011;12052;53.478;10.182;2024-03-02T08:35:31;32.03;;;14.75;;
23743;SDS011;12052;53.478;10.182;2024-03-02T08:38:01;35.35;;;15.60;;
23743;SDS011;12052;53.478;10.182;2024-03-02T08:40:27;43.05;;;16.48;;
23743;SDS011;12052;53.478;10.182;2024-03-02T08:42:53;38.13;;;16.38;;
23743;SDS011;12052;53.478;10.182;2024-03-02T08:45:19;41.28;;;16.88;;
23743;SDS011;12052;53.478;10.182;2024-03-02T08:47:45;41.20;;;16.55;;
23743;SDS011;12052;53.478;10.182;2024-03-02T08:50:11;35.78;;;15.60;;
23743;SDS011;12052;53.478;10.182;2024-03-02T08:52:37;39.05;;;15.20;;
23743;SDS011;12052;53.478;10.182;2024-03-02T08:55:02;32.58;;;14.68;;
23743;SDS011;12052;53.478;10.182;2024-03-02T08:57:28;34.55;;;15.48;;
23743;SDS011;12052;53.478;10.182;2024-03-02T08:59:54;30.40;;;15.63;;
23743;SDS011;12052;53.478;10.182;2024-03-02T09:02:19;35.47;;;16.80;;
23743;SDS011;12052;53.478;10.182;2024-03-02T09:04:45;30.60;;;14.73;;
23743;SDS011;12052;53.478;10.182;2024-03-02T09:07:11;37.30;;;14.60;;
23743;SDS011;12052;53.478;10.182;2024-03-02T09:09:36;32.22;;;14.57;;
23743;SDS011;12052;53.478;10.182;2024-03-02T09:12:04;33.58;;;15.27;;
23743;SDS011;12052;53.478;10.182;2024-03-02T09:14:30;33.67;;;14.98;;
23743;SDS011;12052;53.478;10.182;2024-03-02T09:16:56;31.83;;;15.00;;
23743;SDS011;12052;53.478;10.182;2024-03-02T09:19:22;28.20;;;14.00;;
23743;SDS011;12052;53.478;10.182;2024-03-02T09:21:47;36.33;;;14.73;;
23743;SDS011;12052;53.478;10.182;2024-03-02T09:24:13;32.70;;;14.45;;
23743;SDS011;12052;53.478;10.182;2024-03-02T09:26:38;34.17;;;14.55;;
23743;SDS011;12052;53.478;10.182;2024-03-02T09:29:04;33.47;;;14.73;;
23743;SDS011;12052;53.478;10.182;2024-03-02T09:31:29;42.65;;;14.48;;
23743;SDS011;12052;53.478;10.182;2024-03-02T09:33:55;31.17;;;13.35;;
23743;SDS011;12052;53.478;10.182;2024-03-02T09:36:21;33.20;;;14.35;;
23743;SDS011;12052;53.478;10.182;2024-03-02T09:38:47;28.25;;;13.15;;
23743;SDS011;12052;53.478;10.182;2024-03-02T09:41:13;31.52;;;13.55;;
23743;SDS011;12052;53.478;10.182;2024-03-02T09:43:40;27.13;;;13.15;;
23743;SDS011;12052;53.478;10.182;2024-03-02T09:46:06;39.15;;;14.43;;
23743;SDS011;12052;53.478;10.182;2024-03-02T09:48:35;27.17;;;12.70;;
23743;SDS011;12052;53.478;10.182;2024-03-02T09:51:01;25.08;;;11.73;;
23743;SDS011;12052;53.478;10.182;2024-03-02T09:53:30;31.83;;;11.82;;
23743;SDS011;12052;53.478;10.182;2024-03-02T09:56:01;27.63;;;12.18;;
23743;SDS011;12052;53.478;10.182;2024-03-02T09:58:27;29.27;;;13.15;;
23743;SDS011;12052;53.478;10.182;2024-03-02T10:00:54;28.73;;;12.93;;
23743;SDS011;12052;53.478;10.182;2024-03-02T10:03:19;23.85;;;11.40;;
23743;SDS011;12052;53.478;10.182;2024-03-02T10:05:46;28.40;;;11.63;;
23743;SDS011;12052;53.478;10.182;2024-03-02T10:08:11;24.65;;;10.82;;
23743;SDS011;12052;53.478;10.182;2024-03-02T10:10:38;24.02;;;11.20;;
23743;SDS011;12052;53.478;10.182;2024-03-02T10:13:08;26.90;;;11.63;;
23743;SDS011;12052;53.478;10.182;2024-03-02T10:15:35;21.45;;;10.57;;
23743;SDS011;12052;53.478;10.182;2024-03-02T10:18:03;21.33;;;10.45;;
23743;SDS011;12052;53.478;10.182;2024-03-02T10:20:29;24.00;;;11.00;;
23743;SDS011;12052;53.478;10.182;2024-03-02T10:22:55;20.35;;;10.02;;
23743;SDS011;12052;53.478;10.182;2024-03-02T10:25:31;21.23;;;10.55;;
23743;SDS011;12052;53.478;10.182;2024-03-02T10:27:58;24.13;;;10.13;;
23743;SDS011;12052;53.478;10.182;2024-03-02T10:30:27;17.92;;;9.73;;
23743;SDS011;12052;53.478;10.182;2024-03-02T10:32:53;20.70;;;9.48;;
23743;SDS011;12052;53.478;10.182;2024-03-02T10:35:20;17.65;;;8.55;;
23743;SDS011;12052;53.478;10.182;2024-03-02T10:37:47;17.77;;;8.60;;
23743;SDS011;12052;53.478;10.182;2024-03-02T10:40:13;18.45;;;8.82;;
23743;SDS011;12052;53.478;10.182;2024-03-02T10:42:39;15.25;;;7.78;;
23743;SDS011;12052;53.478;10.182;2024-03-02T10:45:09;16.38;;;7.38;;
23743;SDS011;12052;53.478;10.182;2024-03-02T10:47:38;19.38;;;8.90;;
23743;SDS011;12052;53.478;10.182;2024-03-02T10:50:06;18.95;;;8.52;;
23743;SDS011;12052;53.478;10.182;2024-03-02T10:52:36;18.48;;;8.93;;
23743;SDS011;12052;53.478;10.182;2024-03-02T10:55:03;18.00;;;8.48;;
23743;SDS011;12052;53.478;10.182;2024-03-02T10:57:33;18.27;;;8.90;;
23743;SDS011;12052;53.478;10.182;2024-03-02T11:00:06;19.27;;;8.93;;
23743;SDS011;12052;53.478;10.182;2024-03-02T11:02:40;21.80;;;10.05;;
23743;SDS011;12052;53.478;10.182;2024-03-02T11:05:16;17.38;;;8.82;;
23743;SDS011;12052;53.478;10.182;2024-03-02T11:08:07;14.15;;;7.45;;
23743;SDS011;12052;53.478;10.182;2024-03-02T11:10:40;19.15;;;9.07;;
23743;SDS011;12052;53.478;10.182;2024-03-02T11:13:11;15.82;;;8.25;;
23743;SDS011;12052;53.478;10.182;2024-03-02T11:15:37;16.42;;;7.43;;
23743;SDS011;12052;53.478;10.182;2024-03-02T11:18:05;14.52;;;8.23;;
23743;SDS011;12052;53.478;10.182;2024-03-02T11:20:35;17.27;;;7.32;;
23743;SDS011;12052;53.478;10.182;2024-03-02T11:23:07;16.92;;;8.55;;
23743;SDS011;12052;53.478;10.182;2024-03-02T11:25:34;15.27;;;7.72;;
23743;SDS011;12052;53.478;10.182;2024-03-02T11:28:06;18.23;;;8.43;;
23743;SDS011;12052;53.478;10.182;2024-03-02T11:33:07;18.15;;;8.80;;
23743;SDS011;12052;53.478;10.182;2024-03-02T11:35:36;16.58;;;6.75;;
23743;SDS011;12052;53.478;10.182;2024-03-02T11:38:03;16.83;;;8.27;;
23743;SDS011;12052;53.478;10.182;2024-03-02T11:40:29;18.00;;;8.95;;
23743;SDS011;12052;53.478;10.182;2024-03-02T11:42:59;16.90;;;8.25;;
23743;SDS011;12052;53.478;10.182;2024-03-02T11:45:26;18.20;;;8.70;;
23743;SDS011;12052;53.478;10.182;2024-03-02T11:47:58;16.35;;;8.65;;
23743;SDS011;12052;53.478;10.182;2024-03-02T11:50:30;18.60;;;9.02;;
23743;SDS011;12052;53.478;10.182;2024-03-02T11:53:00;15.30;;;7.93;;
23743;SDS011;12052;53.478;10.182;2024-03-02T11:55:36;20.55;;;9.10;;
23743;SDS011;12052;53.478;10.182;2024-03-02T11:58:06;17.23;;;8.75;;
23743;SDS011;12052;53.478;10.182;2024-03-02T12:00:32;20.83;;;8.40;;
23743;SDS011;12052;53.478;10.182;2024-03-02T12:05:33;18.00;;;7.45;;
23743;SDS011;12052;53.478;10.182;2024-03-02T12:08:00;16.70;;;7.35;;
23743;SDS011;12052;53.478;10.182;2024-03-02T12:10:29;19.17;;;8.77;;
23743;SDS011;12052;53.478;10.182;2024-03-02T12:12:56;14.18;;;7.60;;
23743;SDS011;12052;53.478;10.182;2024-03-02T12:15:26;15.57;;;8.02;;
23743;SDS011;12052;53.478;10.182;2024-03-02T12:17:54;17.80;;;8.05;;
23743;SDS011;12052;53.478;10.182;2024-03-02T12:20:20;15.77;;;8.60;;
23743;SDS011;12052;53.478;10.182;2024-03-02T12:22:46;22.13;;;8.20;;
23743;SDS011;12052;53.478;10.182;2024-03-02T12:25:12;15.55;;;8.23;;
23743;SDS011;12052;53.478;10.182;2024-03-02T12:27:39;12.55;;;6.72;;
23743;SDS011;12052;53.478;10.182;2024-03-02T12:30:05;19.38;;;7.85;;
23743;SDS011;12052;53.478;10.182;2024-03-02T12:32:35;17.98;;;8.60;;
23743;SDS011;12052;53.478;10.182;2024-03-02T12:35:03;16.77;;;7.97;;
23743;SDS011;12052;53.478;10.182;2024-03-02T12:37:29;16.95;;;8.07;;
23743;SDS011;12052;53.478;10.182;2024-03-02T12:39:56;15.25;;;8.02;;
23743;SDS011;12052;53.478;10.182;2024-03-02T12:42:21;14.23;;;7.57;;
23743;SDS011;12052;53.478;10.182;2024-03-02T12:44:48;17.80;;;7.53;;
23743;SDS011;12052;53.478;10.182;2024-03-02T12:47:14;15.73;;;7.82;;
23743;SDS011;12052;53.478;10.182;2024-03-02T12:49:40;14.80;;;7.82;;
23743;SDS011;12052;53.478;10.182;2024-03-02T12:52:05;14.07;;;7.50;;
23743;SDS011;12052;53.478;10.182;2024-03-02T12:54:31;16.10;;;8.38;;
23743;SDS011;12052;53.478;10.182;2024-03-02T12:56:58;15.43;;;7.07;;
23743;SDS011;12052;53.478;10.182;2024-03-02T12:59:24;18.40;;;9.10;;
23743;SDS011;12052;53.478;10.182;2024-03-02T13:01:55;18.30;;;8.63;;
23743;SDS011;12052;53.478;10.182;2024-03-02T13:04:24;20.27;;;8.95;;
23743;SDS011;12052;53.478;10.182;2024-03-02T13:06:51;17.52;;;8.45;;
23743;SDS011;12052;53.478;10.182;2024-03-02T13:09:17;15.82;;;7.97;;
23743;SDS011;12052;53.478;10.182;2024-03-02T13:11:43;20.75;;;9.23;;
23743;SDS011;12052;53.478;10.182;2024-03-02T13:14:10;15.52;;;7.88;;
23743;SDS011;12052;53.478;10.182;2024-03-02T13:16:39;13.95;;;7.20;;
23743;SDS011;12052;53.478;10.182;2024-03-02T13:19:11;16.95;;;8.38;;
23743;SDS011;12052;53.478;10.182;2024-03-02T13:21:37;19.02;;;8.90;;
23743;SDS011;12052;53.478;10.182;2024-03-02T13:24:03;12.40;;;7.80;;
23743;SDS011;12052;53.478;10.182;2024-03-02T13:26:29;15.38;;;7.82;;
23743;SDS011;12052;53.478;10.182;2024-03-02T13:28:55;19.55;;;8.13;;
23743;SDS011;12052;53.478;10.182;2024-03-02T13:31:21;16.15;;;8.15;;
23743;SDS011;12052;53.478;10.182;2024-03-02T13:33:47;15.88;;;7.75;;
23743;SDS011;12052;53.478;10.182;2024-03-02T13:36:13;15.70;;;8.57;;
23743;SDS011;12052;53.478;10.182;2024-03-02T13:38:38;18.30;;;7.85;;
23743;SDS011;12052;53.478;10.182;2024-03-02T13:41:04;13.57;;;7.25;;
23743;SDS011;12052;53.478;10.182;2024-03-02T13:43:30;19.90;;;8.82;;
23743;SDS011;12052;53.478;10.182;2024-03-02T13:45:59;15.50;;;8.02;;
23743;SDS011;12052;53.478;10.182;2024-03-02T13:48:25;16.25;;;6.97;;
23743;SDS011;12052;53.478;10.182;2024-03-02T13:50:51;15.98;;;7.97;;
23743;SDS011;12052;53.478;10.182;2024-03-02T13:53:20;17.65;;;8.07;;
23743;SDS011;12052;53.478;10.182;2024-03-02T13:55:45;13.95;;;6.97;;
23743;SDS011;12052;53.478;10.182;2024-03-02T13:58:11;15.77;;;8.40;;
23743;SDS011;12052;53.478;10.182;2024-03-02T14:00:37;18.08;;;7.20;;
23743;SDS011;12052;53.478;10.182;2024-03-02T14:03:04;18.25;;;8.05;;
23743;SDS011;12052;53.478;10.182;2024-03-02T14:05:31;12.00;;;6.22;;
23743;SDS011;12052;53.478;10.182;2024-03-02T14:07:57;15.30;;;6.45;;
23743;SDS011;12052;53.478;10.182;2024-03-02T14:10:23;14.05;;;6.50;;
23743;SDS011;12052;53.478;10.182;2024-03-02T14:12:49;14.15;;;7.50;;
23743;SDS011;12052;53.478;10.182;2024-03-02T14:15:15;16.60;;;6.60;;
23743;SDS011;12052;53.478;10.182;2024-03-02T14:17:40;14.07;;;6.25;;